createdAt,value
2023-05-09T00:01:54.251Z,6.68
2023-05-09T00:04:21.485Z,6.30
2023-05-09T00:06:48.749Z,6.07
2023-05-09T00:09:16.048Z,6.05
2023-05-09T00:11:43.635Z,6.50
2023-05-09T00:14:14.030Z,6.43
2023-05-09T00:16:41.535Z,6.20
2023-05-09T00:19:08.643Z,6.80
2023-05-09T00:21:35.944Z,5.93
2023-05-09T00:24:03.155Z,6.20
2023-05-09T00:26:30.474Z,6.05
2023-05-09T00:28:57.581Z,6.00
2023-05-09T00:31:24.764Z,6.55
2023-05-09T00:33:53.743Z,6.45
2023-05-09T00:36:21.413Z,6.50
2023-05-09T00:38:48.551Z,6.10
2023-05-09T00:41:15.786Z,5.97
2023-05-09T00:43:43.146Z,6.63
2023-05-09T00:46:10.463Z,6.75
2023-05-09T00:48:37.788Z,7.38
2023-05-09T00:51:05.043Z,6.25
2023-05-09T00:53:32.404Z,7.20
2023-05-09T00:56:00.638Z,8.05
2023-05-09T00:58:28.312Z,7.15
2023-05-09T01:00:55.456Z,7.40
2023-05-09T01:03:22.959Z,6.38
2023-05-09T01:06:15.558Z,6.72
2023-05-09T01:08:48.866Z,6.57
2023-05-09T01:11:34.864Z,6.95
2023-05-09T01:14:20.682Z,7.22
2023-05-09T01:16:57.397Z,6.65
2023-05-09T01:19:43.168Z,7.05
2023-05-09T01:22:13.715Z,5.93
2023-05-09T01:24:59.860Z,6.95
2023-05-09T01:27:53.813Z,5.32
2023-05-09T01:30:21.367Z,6.18
2023-05-09T01:32:51.853Z,5.47
2023-05-09T01:35:24.380Z,6.25
2023-05-09T01:37:51.882Z,6.35
2023-05-09T01:40:21.596Z,5.97
2023-05-09T01:42:58.957Z,5.95
2023-05-09T01:45:28.239Z,6.05
2023-05-09T01:47:57.630Z,7.20
2023-05-09T01:50:27.202Z,5.97
2023-05-09T01:52:56.915Z,6.05
2023-05-09T01:55:28.217Z,6.82
2023-05-09T01:57:57.854Z,5.55
2023-05-09T02:00:25.566Z,5.70
2023-05-09T02:02:53.434Z,5.53
2023-05-09T02:05:22.383Z,5.50
2023-05-09T02:07:50.100Z,5.72
2023-05-09T02:10:17.900Z,6.15
2023-05-09T02:12:45.087Z,5.60
2023-05-09T02:15:12.919Z,5.75
2023-05-09T02:17:40.688Z,5.15
2023-05-09T02:20:10.031Z,5.97
2023-05-09T02:22:37.716Z,6.35
2023-05-09T02:25:07.524Z,5.50
2023-05-09T02:27:35.717Z,5.57
2023-05-09T02:30:08.767Z,5.63
2023-05-09T02:32:38.926Z,6.15
2023-05-09T02:35:09.332Z,6.10
2023-05-09T02:37:38.570Z,5.65
2023-05-09T02:40:09.250Z,5.50
2023-05-09T02:42:36.677Z,6.20
2023-05-09T02:45:04.143Z,5.57
2023-05-09T02:47:34.495Z,6.32
2023-05-09T02:50:01.585Z,5.20
2023-05-09T02:52:31.769Z,5.70
2023-05-09T02:54:59.116Z,5.97
2023-05-09T02:57:26.476Z,5.88
2023-05-09T02:59:53.552Z,6.95
2023-05-09T03:02:20.870Z,6.13
2023-05-09T03:04:48.016Z,7.50
2023-05-09T03:07:15.159Z,6.63
2023-05-09T03:09:42.276Z,6.88
2023-05-09T03:12:09.658Z,6.00
2023-05-09T03:14:36.856Z,6.13
2023-05-09T03:17:03.951Z,6.57
2023-05-09T03:19:31.549Z,6.38
2023-05-09T03:21:58.629Z,6.75
2023-05-09T03:24:28.317Z,6.45
2023-05-09T03:26:55.571Z,5.78
2023-05-09T03:29:22.893Z,6.28
2023-05-09T03:31:50.200Z,6.60
2023-05-09T03:34:17.484Z,7.72
2023-05-09T03:36:45.166Z,7.63
2023-05-09T03:39:12.394Z,6.68
2023-05-09T03:41:39.810Z,7.43
2023-05-09T03:44:07.129Z,6.80
2023-05-09T03:46:34.494Z,6.57
2023-05-09T03:49:01.658Z,6.85
2023-05-09T03:51:28.874Z,6.95
2023-05-09T03:53:56.363Z,7.43
2023-05-09T03:56:23.639Z,7.78
2023-05-09T03:58:50.808Z,7.68
2023-05-09T04:01:18.392Z,7.72
2023-05-09T04:03:45.650Z,7.28
2023-05-09T04:06:12.887Z,7.70
2023-05-09T04:08:40.077Z,7.22
2023-05-09T04:11:07.540Z,7.15
2023-05-09T04:13:34.916Z,7.50
2023-05-09T04:16:02.201Z,7.07
2023-05-09T04:18:29.346Z,7.65
2023-05-09T04:20:56.454Z,8.05
2023-05-09T04:23:23.899Z,6.93
2023-05-09T04:25:52.384Z,7.88
2023-05-09T04:28:19.663Z,7.68
2023-05-09T04:30:46.822Z,7.07
2023-05-09T04:33:14.293Z,5.93
2023-05-09T04:35:41.484Z,6.72
2023-05-09T04:38:08.606Z,5.72
2023-05-09T04:40:36.513Z,6.53
2023-05-09T04:43:04.319Z,6.60
2023-05-09T04:45:32.008Z,6.40
2023-05-09T04:47:59.238Z,6.15
2023-05-09T04:50:26.620Z,6.10
2023-05-09T04:52:53.922Z,7.40
2023-05-09T04:55:21.299Z,6.95
2023-05-09T04:57:48.729Z,6.32
2023-05-09T05:00:17.773Z,6.25
2023-05-09T05:02:44.961Z,6.30
2023-05-09T05:05:12.751Z,6.00
2023-05-09T05:07:40.078Z,6.18
2023-05-09T05:10:07.693Z,5.13
2023-05-09T05:12:34.964Z,4.82
2023-05-09T05:15:02.243Z,5.13
2023-05-09T05:17:32.029Z,4.80
2023-05-09T05:19:59.465Z,4.78
2023-05-09T05:22:26.700Z,5.78
2023-05-09T05:24:53.773Z,5.05
2023-05-09T05:27:20.963Z,4.65
2023-05-09T05:29:48.056Z,5.20
2023-05-09T05:32:15.160Z,5.90
2023-05-09T05:34:42.258Z,5.65
2023-05-09T05:37:09.518Z,5.10
2023-05-09T05:39:36.916Z,5.47
2023-05-09T05:42:04.215Z,5.10
2023-05-09T05:44:31.328Z,5.10
2023-05-09T05:46:58.404Z,3.63
2023-05-09T05:49:28.654Z,4.70
2023-05-09T05:51:55.950Z,5.50
2023-05-09T05:54:23.053Z,5.38
2023-05-09T05:56:50.286Z,5.50
2023-05-09T05:59:17.535Z,5.25
2023-05-09T06:01:44.727Z,5.10
2023-05-09T06:04:11.934Z,4.65
2023-05-09T06:06:39.217Z,3.85
2023-05-09T06:09:06.341Z,2.85
2023-05-09T06:11:33.497Z,2.80
2023-05-09T06:14:00.910Z,3.40
2023-05-09T06:16:28.475Z,2.40
2023-05-09T06:18:56.296Z,2.30
2023-05-09T06:21:23.730Z,2.72
2023-05-09T06:24:07.795Z,2.67
2023-05-09T06:26:37.520Z,2.72
2023-05-09T06:29:06.624Z,2.20
2023-05-09T06:31:39.130Z,2.00
2023-05-09T06:34:06.763Z,2.38
2023-05-09T06:36:35.037Z,2.05
2023-05-09T06:39:02.262Z,2.20
2023-05-09T06:41:29.807Z,2.03
2023-05-09T06:43:57.015Z,1.90
2023-05-09T06:46:24.269Z,1.80
2023-05-09T06:48:51.457Z,2.13
2023-05-09T06:51:18.607Z,2.03
2023-05-09T06:53:46.076Z,2.03
2023-05-09T06:56:13.319Z,1.63
2023-05-09T06:58:40.586Z,2.00
2023-05-09T07:01:07.867Z,1.60
2023-05-09T07:03:35.152Z,1.83
2023-05-09T07:06:02.262Z,1.70
2023-05-09T07:08:29.364Z,1.60
2023-05-09T07:10:56.516Z,1.70
2023-05-09T07:13:24.039Z,1.90
2023-05-09T07:15:51.196Z,2.47
2023-05-09T07:18:18.409Z,2.75
2023-05-09T07:20:45.802Z,2.70
2023-05-09T07:23:12.920Z,2.50
2023-05-09T07:25:40.110Z,2.58
2023-05-09T07:28:07.289Z,2.50
2023-05-09T07:30:34.423Z,2.00
2023-05-09T07:33:01.998Z,2.47
2023-05-09T07:35:29.254Z,2.10
2023-05-09T07:37:56.516Z,2.50
2023-05-09T07:40:23.600Z,2.90
2023-05-09T07:42:51.759Z,3.10
2023-05-09T07:45:20.514Z,3.08
2023-05-09T07:47:49.253Z,2.85
2023-05-09T07:50:18.042Z,2.70
2023-05-09T07:52:45.554Z,3.42
2023-05-09T07:55:12.727Z,2.97
2023-05-09T07:57:58.515Z,2.72
2023-05-09T08:00:25.802Z,2.63
2023-05-09T08:02:54.126Z,3.22
2023-05-09T08:05:22.090Z,2.60
2023-05-09T08:07:49.326Z,2.72
2023-05-09T08:10:16.808Z,2.42
2023-05-09T08:12:43.996Z,2.42
2023-05-09T08:15:11.641Z,2.47
2023-05-09T08:17:38.845Z,2.30
2023-05-09T08:20:07.984Z,2.05
2023-05-09T08:22:35.396Z,2.00
2023-05-09T08:25:02.830Z,2.00
2023-05-09T08:27:31.493Z,2.03
2023-05-09T08:29:58.660Z,1.92
2023-05-09T08:32:26.125Z,2.45
2023-05-09T08:34:53.625Z,1.70
2023-05-09T08:37:20.790Z,2.10
2023-05-09T08:39:47.902Z,1.75
2023-05-09T08:42:18.900Z,1.70
2023-05-09T08:44:46.483Z,2.40
2023-05-09T08:47:14.343Z,1.80
2023-05-09T08:50:00.433Z,2.13
2023-05-09T08:52:27.746Z,2.10
2023-05-09T08:54:55.165Z,2.30
2023-05-09T08:57:22.616Z,2.30
2023-05-09T08:59:51.618Z,2.15
2023-05-09T09:02:19.834Z,2.10
2023-05-09T09:04:47.111Z,1.70
2023-05-09T09:07:15.610Z,1.85
2023-05-09T09:09:47.602Z,2.20
2023-05-09T09:12:17.079Z,2.08
2023-05-09T09:14:50.355Z,2.10
2023-05-09T09:17:20.737Z,2.00
2023-05-09T09:20:09.610Z,2.15
2023-05-09T09:22:40.447Z,2.00
2023-05-09T09:25:07.848Z,2.08
2023-05-09T09:27:35.666Z,2.08
2023-05-09T09:30:10.822Z,1.85
2023-05-09T09:32:40.340Z,2.05
2023-05-09T09:35:08.827Z,1.80
2023-05-09T09:37:37.749Z,2.03
2023-05-09T09:40:07.286Z,1.92
2023-05-09T09:42:42.989Z,2.08
2023-05-09T09:45:17.767Z,1.75
2023-05-09T09:47:47.226Z,1.90
2023-05-09T09:50:15.812Z,2.00
2023-05-09T09:52:53.921Z,2.58
2023-05-09T09:55:22.235Z,2.33
2023-05-09T09:57:49.542Z,1.80
2023-05-09T10:00:24.830Z,1.75
2023-05-09T10:02:56.778Z,1.80
2023-05-09T10:05:31.567Z,1.70
2023-05-09T10:08:03.084Z,1.92
2023-05-09T10:10:32.437Z,2.05
2023-05-09T10:13:07.753Z,1.90
2023-05-09T10:15:49.212Z,1.80
2023-05-09T10:18:25.516Z,1.67
2023-05-09T10:20:55.260Z,1.40
2023-05-09T10:23:24.386Z,1.73
2023-05-09T10:25:57.800Z,1.73
2023-05-09T10:28:31.694Z,1.50
2023-05-09T10:31:10.353Z,1.40
2023-05-09T10:33:49.726Z,1.70
2023-05-09T10:36:21.562Z,1.58
2023-05-09T10:38:49.909Z,1.70
2023-05-09T10:41:18.895Z,1.63
2023-05-09T10:43:46.926Z,1.40
2023-05-09T10:46:15.840Z,1.52
2023-05-09T10:48:44.325Z,1.40
2023-05-09T10:51:12.681Z,1.60
2023-05-09T10:53:48.033Z,1.80
2023-05-09T10:56:36.019Z,1.80
2023-05-09T10:59:03.372Z,1.95
2023-05-09T11:01:37.513Z,1.90
2023-05-09T11:04:17.363Z,1.77
2023-05-09T11:06:53.347Z,1.90
2023-05-09T11:09:38.233Z,2.08
2023-05-09T11:12:13.348Z,2.08
2023-05-09T11:14:45.403Z,1.95
2023-05-09T11:17:15.159Z,1.85
2023-05-09T11:19:49.125Z,2.15
2023-05-09T11:22:32.597Z,1.77
2023-05-09T11:25:14.669Z,1.60
2023-05-09T11:27:50.360Z,1.75
2023-05-09T11:30:19.918Z,1.65
2023-05-09T11:32:52.387Z,1.67
2023-05-09T11:35:21.715Z,1.67
2023-05-09T11:38:00.423Z,1.77
2023-05-09T11:40:29.157Z,1.70
2023-05-09T11:42:58.878Z,1.70
2023-05-09T11:45:31.793Z,1.50
2023-05-09T11:48:00.665Z,1.63
2023-05-09T11:50:27.958Z,1.60
2023-05-09T11:52:55.137Z,1.65
2023-05-09T11:55:23.301Z,1.60
2023-05-09T11:57:53.016Z,1.77
2023-05-09T12:00:22.556Z,1.77
2023-05-09T12:02:51.357Z,1.50
2023-05-09T12:05:21.032Z,1.75
2023-05-09T12:07:48.977Z,1.60
2023-05-09T12:10:20.655Z,2.13
2023-05-09T12:12:49.967Z,1.85
2023-05-09T12:15:18.144Z,1.75
2023-05-09T12:17:47.288Z,1.90
2023-05-09T12:20:15.507Z,1.80
2023-05-09T12:22:53.576Z,2.00
2023-05-09T12:25:22.502Z,1.60
2023-05-09T12:27:49.682Z,1.80
2023-05-09T12:30:18.680Z,1.92
2023-05-09T12:32:46.863Z,1.90
2023-05-09T12:35:14.788Z,2.42
2023-05-09T12:38:01.743Z,1.95
2023-05-09T12:40:28.946Z,2.30
2023-05-09T12:43:03.139Z,2.00
2023-05-09T12:45:33.869Z,2.10
2023-05-09T12:48:02.570Z,2.15
2023-05-09T12:50:36.783Z,2.33
2023-05-09T12:53:06.997Z,2.50
2023-05-09T12:55:41.164Z,2.28
2023-05-09T12:58:08.572Z,2.78
2023-05-09T13:00:46.072Z,2.22
2023-05-09T13:03:26.050Z,2.60
2023-05-09T13:06:01.204Z,2.70
2023-05-09T13:08:29.659Z,2.15
2023-05-09T13:11:15.006Z,1.98
2023-05-09T13:13:42.833Z,1.98
2023-05-09T13:16:11.221Z,2.13
2023-05-09T13:18:40.009Z,2.20
2023-05-09T13:21:07.496Z,2.10
2023-05-09T13:23:34.774Z,2.10
2023-05-09T13:26:01.925Z,2.22
2023-05-09T13:28:29.151Z,2.22
2023-05-09T13:30:56.336Z,2.10
2023-05-09T13:33:26.436Z,2.60
2023-05-09T13:35:54.210Z,2.60
2023-05-09T13:38:21.518Z,2.22
2023-05-09T13:40:48.834Z,2.60
2023-05-09T13:43:16.140Z,2.15
2023-05-09T13:45:43.799Z,2.22
2023-05-09T13:48:11.838Z,2.15
2023-05-09T13:50:39.306Z,2.45
2023-05-09T13:53:06.695Z,2.20
2023-05-09T13:55:34.681Z,2.28
2023-05-09T13:58:01.858Z,2.15
2023-05-09T14:00:29.269Z,2.10
2023-05-09T14:02:56.543Z,2.10
2023-05-09T14:05:23.786Z,1.88
2023-05-09T14:07:53.487Z,1.90
2023-05-09T14:10:20.769Z,1.90
2023-05-09T14:12:48.584Z,2.10
2023-05-09T14:15:16.728Z,1.92
2023-05-09T14:17:43.933Z,2.10
2023-05-09T14:20:12.479Z,2.30
2023-05-09T14:22:39.714Z,2.22
2023-05-09T14:25:07.380Z,2.00
2023-05-09T14:27:37.226Z,2.00
2023-05-09T14:30:05.285Z,2.30
2023-05-09T14:32:34.136Z,1.90
2023-05-09T14:35:01.358Z,1.85
2023-05-09T14:37:31.450Z,2.20
2023-05-09T14:40:05.405Z,2.20
2023-05-09T14:42:33.529Z,1.90
2023-05-09T14:45:00.830Z,2.10
2023-05-09T14:47:28.043Z,2.13
2023-05-09T14:49:56.144Z,2.00
2023-05-09T14:52:23.248Z,2.15
2023-05-09T14:54:50.602Z,2.10
2023-05-09T14:57:17.763Z,2.25
2023-05-09T14:59:44.900Z,2.08
2023-05-09T15:02:12.550Z,2.10
2023-05-09T15:04:41.493Z,2.10
2023-05-09T15:07:08.976Z,2.17
2023-05-09T15:09:36.179Z,2.38
2023-05-09T15:12:03.335Z,1.98
2023-05-09T15:14:30.524Z,2.40
2023-05-09T15:17:01.397Z,2.42
2023-05-09T15:19:31.687Z,2.40
2023-05-09T15:22:00.746Z,2.28
2023-05-09T15:24:28.217Z,2.35
2023-05-09T15:26:55.313Z,2.22
2023-05-09T15:29:22.711Z,2.60
2023-05-09T15:31:49.860Z,2.35
2023-05-09T15:34:17.202Z,2.58
2023-05-09T15:36:44.437Z,2.58
2023-05-09T15:39:11.878Z,2.42
2023-05-09T15:41:39.043Z,2.65
2023-05-09T15:44:07.495Z,2.22
2023-05-09T15:46:34.920Z,2.90
2023-05-09T15:49:02.105Z,2.60
2023-05-09T15:51:30.224Z,2.40
2023-05-09T15:53:57.528Z,2.13
2023-05-09T15:56:24.727Z,2.60
2023-05-09T15:58:51.996Z,2.10
2023-05-09T16:01:19.244Z,2.40
2023-05-09T16:03:46.700Z,2.65
2023-05-09T16:06:14.264Z,2.50
2023-05-09T16:08:41.379Z,2.35
2023-05-09T16:11:08.887Z,2.40
2023-05-09T16:13:36.344Z,2.60
2023-05-09T16:16:03.839Z,2.28
2023-05-09T16:18:31.618Z,2.10
2023-05-09T16:20:59.669Z,2.20
2023-05-09T16:23:26.969Z,2.60
2023-05-09T16:25:54.146Z,2.28
2023-05-09T16:28:23.655Z,1.88
2023-05-09T16:30:54.058Z,2.42
2023-05-09T16:33:21.418Z,2.70
2023-05-09T16:35:48.786Z,2.70
2023-05-09T16:38:16.075Z,3.50
2023-05-09T16:40:43.195Z,3.63
2023-05-09T16:43:10.449Z,3.58
2023-05-09T16:45:37.657Z,3.47
2023-05-09T16:48:05.233Z,4.32
2023-05-09T16:50:32.415Z,4.45
2023-05-09T16:52:59.849Z,4.20
2023-05-09T16:55:26.972Z,3.20
2023-05-09T16:57:54.214Z,3.45
2023-05-09T17:00:22.170Z,3.03
2023-05-09T17:02:49.592Z,3.35
2023-05-09T17:05:16.952Z,3.50
2023-05-09T17:07:44.110Z,4.05
2023-05-09T17:10:12.114Z,23.38
2023-05-09T17:12:39.838Z,4.43
2023-05-09T17:15:07.940Z,3.50
2023-05-09T17:17:36.103Z,3.58
2023-05-09T17:20:04.533Z,3.90
2023-05-09T17:22:32.189Z,4.47
2023-05-09T17:24:59.531Z,4.07
2023-05-09T17:27:27.181Z,4.30
2023-05-09T17:29:54.274Z,4.38
2023-05-09T17:32:21.784Z,4.45
2023-05-09T17:34:48.969Z,5.40
2023-05-09T17:37:17.294Z,5.70
2023-05-09T17:39:44.660Z,4.63
2023-05-09T17:42:13.210Z,4.60
2023-05-09T17:44:42.484Z,4.18
2023-05-09T17:47:12.681Z,4.75
2023-05-09T17:49:40.390Z,4.07
2023-05-09T17:52:08.103Z,4.22
2023-05-09T17:54:36.461Z,4.55
2023-05-09T17:57:03.850Z,4.85
2023-05-09T17:59:31.046Z,5.35
2023-05-09T18:01:58.508Z,5.40
2023-05-09T18:04:26.213Z,5.75
2023-05-09T18:06:53.496Z,4.40
2023-05-09T18:09:21.126Z,5.03
2023-05-09T18:11:48.935Z,5.18
2023-05-09T18:14:16.713Z,6.03
2023-05-09T18:16:43.895Z,5.93
2023-05-09T18:19:11.023Z,5.40
2023-05-09T18:21:38.827Z,4.65
2023-05-09T18:24:06.406Z,5.47
2023-05-09T18:26:33.611Z,4.90
2023-05-09T18:29:00.780Z,5.20
2023-05-09T18:31:28.129Z,5.50
2023-05-09T18:33:55.609Z,5.00
2023-05-09T18:36:22.747Z,6.82
2023-05-09T18:38:49.795Z,4.20
2023-05-09T18:41:17.660Z,4.20
2023-05-09T18:43:46.122Z,4.80
2023-05-09T18:46:20.754Z,4.63
2023-05-09T18:48:51.274Z,5.03
2023-05-09T18:51:19.091Z,5.35
2023-05-09T18:53:47.544Z,6.15
2023-05-09T18:56:14.986Z,6.00
2023-05-09T18:58:42.109Z,7.13
2023-05-09T19:01:11.747Z,6.07
2023-05-09T19:03:46.298Z,7.07
2023-05-09T19:06:14.892Z,6.22
2023-05-09T19:08:43.228Z,6.28
2023-05-09T19:11:11.802Z,5.93
2023-05-09T19:13:41.135Z,14.90
2023-05-09T19:16:08.954Z,5.90
2023-05-09T19:18:36.223Z,6.60
2023-05-09T19:21:21.657Z,6.97
2023-05-09T19:23:49.454Z,6.90
2023-05-09T19:26:17.826Z,6.80
2023-05-09T19:28:46.799Z,7.10
2023-05-09T19:31:15.784Z,7.65
2023-05-09T19:33:45.811Z,6.75
2023-05-09T19:36:14.026Z,6.38
2023-05-09T19:38:41.180Z,6.88
2023-05-09T19:41:08.364Z,6.18
2023-05-09T19:43:35.616Z,5.63
2023-05-09T19:46:02.751Z,5.70
2023-05-09T19:48:29.921Z,7.20
2023-05-09T19:50:59.095Z,6.65
2023-05-09T19:53:26.408Z,6.53
2023-05-09T19:55:53.676Z,6.40
2023-05-09T19:58:20.918Z,6.30
2023-05-09T20:00:48.823Z,6.80
2023-05-09T20:03:17.562Z,7.47
2023-05-09T20:05:44.758Z,7.03
2023-05-09T20:08:12.020Z,6.80
2023-05-09T20:10:39.175Z,6.85
2023-05-09T20:13:07.075Z,6.88
2023-05-09T20:15:34.269Z,7.38
2023-05-09T20:18:03.682Z,6.78
2023-05-09T20:20:32.418Z,7.20
2023-05-09T20:23:02.680Z,6.50
2023-05-09T20:25:29.865Z,6.45
2023-05-09T20:27:57.004Z,6.93
2023-05-09T20:30:24.115Z,7.03
2023-05-09T20:32:51.965Z,6.90
2023-05-09T20:35:19.436Z,6.50
2023-05-09T20:37:46.896Z,5.93
2023-05-09T20:40:14.565Z,6.10
2023-05-09T20:42:41.897Z,6.40
2023-05-09T20:45:09.550Z,5.70
2023-05-09T20:47:36.934Z,5.78
2023-05-09T20:50:04.207Z,5.72
2023-05-09T20:52:31.517Z,5.45
2023-05-09T20:54:59.413Z,6.40
2023-05-09T20:57:26.589Z,6.07
2023-05-09T20:59:53.743Z,5.50
2023-05-09T21:02:21.188Z,5.68
2023-05-09T21:04:48.751Z,5.80
2023-05-09T21:07:19.262Z,6.70
2023-05-09T21:09:48.029Z,6.88
2023-05-09T21:12:15.361Z,6.85
2023-05-09T21:14:42.785Z,6.90
2023-05-09T21:17:09.991Z,6.30
2023-05-09T21:19:37.166Z,6.10
2023-05-09T21:22:04.391Z,6.13
2023-05-09T21:24:31.505Z,5.93
2023-05-09T21:26:58.562Z,5.65
2023-05-09T21:29:25.762Z,5.57
2023-05-09T21:31:53.283Z,5.93
2023-05-09T21:34:21.623Z,6.18
2023-05-09T21:36:48.797Z,6.18
2023-05-09T21:39:15.923Z,6.30
2023-05-09T21:41:43.257Z,8.07
2023-05-09T21:44:12.229Z,6.00
2023-05-09T21:46:39.502Z,5.15
2023-05-09T21:49:06.752Z,5.70
2023-05-09T21:51:34.954Z,5.35
2023-05-09T21:54:02.357Z,5.65
2023-05-09T21:56:29.825Z,5.50
2023-05-09T21:58:56.934Z,4.60
2023-05-09T22:01:24.109Z,5.05
2023-05-09T22:03:51.957Z,5.35
2023-05-09T22:06:19.275Z,4.93
2023-05-09T22:08:46.381Z,5.15
2023-05-09T22:11:14.944Z,5.18
2023-05-09T22:13:42.644Z,5.10
2023-05-09T22:16:09.974Z,4.95
2023-05-09T22:18:37.305Z,5.72
2023-05-09T22:21:04.664Z,5.88
2023-05-09T22:23:31.897Z,5.47
2023-05-09T22:25:58.961Z,6.28
2023-05-09T22:28:26.059Z,6.28
2023-05-09T22:30:53.142Z,6.60
2023-05-09T22:33:20.677Z,6.68
2023-05-09T22:35:48.055Z,5.65
2023-05-09T22:38:15.236Z,5.72
2023-05-09T22:40:42.400Z,5.15
2023-05-09T22:43:11.007Z,4.43
2023-05-09T22:45:38.351Z,5.07
2023-05-09T22:48:06.064Z,4.97
2023-05-09T22:50:33.222Z,4.60
2023-05-09T22:53:01.098Z,4.55
2023-05-09T22:55:28.673Z,4.72
2023-05-09T22:57:55.840Z,5.03
2023-05-09T23:00:23.026Z,4.55
2023-05-09T23:02:50.302Z,4.90
2023-05-09T23:05:17.689Z,4.57
2023-05-09T23:07:45.010Z,4.63
2023-05-09T23:10:12.249Z,4.63
2023-05-09T23:12:39.337Z,4.32
2023-05-09T23:15:07.530Z,3.83
2023-05-09T23:17:35.324Z,4.22
2023-05-09T23:20:04.153Z,4.22
2023-05-09T23:22:32.380Z,4.15
2023-05-09T23:25:00.946Z,3.88
2023-05-09T23:27:28.516Z,4.10
2023-05-09T23:29:55.874Z,4.15
2023-05-09T23:32:23.252Z,5.00
2023-05-09T23:34:50.559Z,4.82
2023-05-09T23:37:18.051Z,6.25
2023-05-09T23:39:45.129Z,5.40
2023-05-09T23:42:12.585Z,5.40
2023-05-09T23:44:39.723Z,6.00
2023-05-09T23:47:07.036Z,4.95
2023-05-09T23:49:34.227Z,5.53
2023-05-09T23:52:01.418Z,4.88
2023-05-09T23:54:28.852Z,5.10
2023-05-09T23:56:59.153Z,4.65
2023-05-09T23:59:26.219Z,4.68
